Time;durP1;ratioP1;P1;durP2;ratioP2;P2;SDS_P1;SDS_P2;PMS_P1;PMS_P2;Temp;Humidity;BMP_temperature;BMP_pressure;BME280_temperature;BME280_humidity;BME280_pressure;Samples;Min_cycle;Max_cycle;Signal;HPM_P1;HPM_P2
2021/07/06 00:00:12;;;;;;;1.53;1.43;;;17.00;99.90;;;;;;5093048;28;20433;-85
2021/07/06 00:02:39;;;;;;;2.73;1.30;;;17.00;99.90;;;;;;5093751;28;20424;-85
2021/07/06 00:05:07;;;;;;;1.40;1.17;;;17.00;99.90;;;;;;5093435;28;20455;-85
2021/07/06 00:07:34;;;;;;;1.57;1.20;;;16.90;99.90;;;;;;5093526;28;20464;-85
2021/07/06 00:10:04;;;;;;;1.00;1.00;;;16.90;99.90;;;;;;5093030;28;20953;-85
2021/07/06 00:12:31;;;;;;;1.57;1.20;;;16.90;99.90;;;;;;5093254;28;20455;-85
2021/07/06 00:14:58;;;;;;;1.77;1.67;;;16.90;99.90;;;;;;5095207;28;20450;-85
2021/07/06 00:17:24;;;;;;;1.30;1.20;;;16.90;99.90;;;;;;5097061;28;21009;-85
2021/07/06 00:19:51;;;;;;;1.40;1.30;;;16.90;99.90;;;;;;5097362;28;20490;-85
2021/07/06 00:22:19;;;;;;;2.80;2.30;;;16.80;99.90;;;;;;5097348;28;20474;-85
2021/07/06 00:24:46;;;;;;;1.97;1.87;;;16.80;99.90;;;;;;5096942;28;20451;-76
2021/07/06 00:27:14;;;;;;;1.57;1.47;;;16.80;99.90;;;;;;5096860;28;20448;-76
2021/07/06 00:29:41;;;;;;;1.53;1.30;;;16.70;99.90;;;;;;5096859;28;20891;-76
2021/07/06 00:32:09;;;;;;;1.97;1.63;;;16.70;99.90;;;;;;5097096;28;20544;-76
2021/07/06 00:34:36;;;;;;;4.77;1.83;;;16.70;99.90;;;;;;5096643;28;20935;-76
2021/07/06 00:37:03;;;;;;;1.67;1.40;;;16.60;99.90;;;;;;5096756;28;20438;-76
2021/07/06 00:39:29;;;;;;;1.37;1.27;;;16.60;99.90;;;;;;5096671;28;20471;-76
2021/07/06 00:41:56;;;;;;;3.10;1.43;;;16.50;99.90;;;;;;5096717;28;20946;-76
2021/07/06 00:44:24;;;;;;;2.37;1.40;;;16.50;99.90;;;;;;5096558;28;20947;-76
2021/07/06 00:46:51;;;;;;;1.70;1.60;;;16.50;99.90;;;;;;5096569;28;20431;-76
2021/07/06 00:49:18;;;;;;;1.30;1.20;;;16.50;99.90;;;;;;5096449;28;20837;-76
2021/07/06 00:51:45;;;;;;;1.30;1.17;;;16.50;99.90;;;;;;5096393;28;20814;-76
2021/07/06 00:54:12;;;;;;;1.67;1.03;;;16.60;99.90;;;;;;5096678;28;20443;-76
2021/07/06 00:56:39;;;;;;;1.03;1.00;;;16.70;99.90;;;;;;5096691;28;20449;-76
2021/07/06 00:59:06;;;;;;;1.00;1.00;;;16.80;99.90;;;;;;5096164;28;20574;-78
2021/07/06 01:01:36;;;;;;;1.30;1.30;;;16.90;99.90;;;;;;5096183;28;20482;-79
2021/07/06 01:04:03;;;;;;;1.70;1.60;;;16.90;99.90;;;;;;5096180;28;20947;-79
2021/07/06 01:06:30;;;;;;;2.90;1.33;;;16.90;99.90;;;;;;5096145;28;20451;-79
2021/07/06 01:08:56;;;;;;;1.37;1.27;;;16.90;99.90;;;;;;5096355;28;20463;-79
2021/07/06 01:11:23;;;;;;;2.30;1.60;;;17.00;99.90;;;;;;5096367;28;20440;-78
2021/07/06 01:13:50;;;;;;;1.73;1.63;;;17.00;99.90;;;;;;5096336;28;20454;-79
2021/07/06 01:16:17;;;;;;;1.83;1.20;;;16.90;99.90;;;;;;5096342;28;20813;-79
2021/07/06 01:18:46;;;;;;;1.40;1.30;;;16.90;99.90;;;;;;5096018;28;20490;-79
2021/07/06 01:21:13;;;;;;;1.53;1.33;;;16.90;99.90;;;;;;5095877;28;20455;-79
2021/07/06 01:23:41;;;;;;;1.47;1.30;;;16.90;99.90;;;;;;5096111;28;20448;-78
2021/07/06 01:26:09;;;;;;;2.63;1.67;;;16.90;99.90;;;;;;5095905;28;20455;-78
2021/07/06 01:28:38;;;;;;;1.67;1.47;;;16.90;99.90;;;;;;5095898;28;20473;-78
2021/07/06 01:31:05;;;;;;;1.73;1.63;;;16.90;99.90;;;;;;5096232;28;20505;-85
2021/07/06 01:33:34;;;;;;;1.87;1.77;;;16.90;99.90;;;;;;5095569;28;20444;-85
2021/07/06 01:36:07;;;;;;;1.80;1.70;;;16.90;99.90;;;;;;5095637;28;20518;-84
2021/07/06 01:38:34;;;;;;;1.40;1.30;;;16.90;99.90;;;;;;5095813;28;20850;-84
2021/07/06 01:41:03;;;;;;;1.87;1.77;;;16.90;99.90;;;;;;5095557;28;20433;-85
2021/07/06 01:43:30;;;;;;;1.63;1.33;;;16.90;99.90;;;;;;5095908;28;20436;-85
2021/07/06 01:45:57;;;;;;;1.63;1.53;;;16.80;99.90;;;;;;5095670;28;20954;-78
2021/07/06 01:48:24;;;;;;;1.97;1.77;;;16.80;99.90;;;;;;5095400;28;20464;-79
2021/07/06 01:50:50;;;;;;;1.77;1.67;;;16.70;99.90;;;;;;5095335;28;20806;-79
2021/07/06 01:53:21;;;;;;;1.80;1.50;;;16.70;99.90;;;;;;5095604;28;20448;-78
2021/07/06 01:55:50;;;;;;;1.97;1.50;;;16.60;99.90;;;;;;5095579;28;20439;-79
2021/07/06 01:58:21;;;;;;;1.60;1.50;;;16.60;99.90;;;;;;5095543;28;20827;-79
2021/07/06 02:00:49;;;;;;;2.30;2.10;;;16.60;99.90;;;;;;5095335;28;20484;-79
2021/07/06 02:03:17;;;;;;;1.30;1.30;;;16.50;99.90;;;;;;5095420;28;20437;-79
2021/07/06 02:05:46;;;;;;;1.40;1.30;;;16.50;99.90;;;;;;5095380;28;20448;-79
2021/07/06 02:08:15;;;;;;;1.47;1.37;;;16.50;99.90;;;;;;5095237;28;20558;-80
2021/07/06 02:10:45;;;;;;;2.63;1.23;;;16.50;99.90;;;;;;5095247;28;20440;-80
2021/07/06 02:13:13;;;;;;;1.90;1.70;;;16.50;99.90;;;;;;5095185;28;20452;-80
2021/07/06 02:15:42;;;;;;;1.27;1.20;;;16.50;99.90;;;;;;5095190;28;20801;-79
2021/07/06 02:18:14;;;;;;;1.63;1.57;;;16.50;99.90;;;;;;5094739;28;20471;-80
2021/07/06 02:20:41;;;;;;;1.37;1.30;;;16.50;99.90;;;;;;5095033;28;20561;-80
2021/07/06 02:23:07;;;;;;;1.90;1.40;;;16.50;99.90;;;;;;5094677;28;20961;-80
2021/07/06 02:25:34;;;;;;;1.60;1.50;;;16.50;99.90;;;;;;5094965;28;20448;-80
2021/07/06 02:28:01;;;;;;;1.63;1.53;;;16.50;99.90;;;;;;5094807;28;20474;-80
2021/07/06 02:30:29;;;;;;;1.17;1.07;;;16.40;99.90;;;;;;5094539;28;20436;-80
2021/07/06 02:32:57;;;;;;;2.13;1.60;;;16.40;99.90;;;;;;5094898;28;20808;-76
2021/07/06 02:35:27;;;;;;;3.00;1.50;;;16.40;99.90;;;;;;5094806;28;20456;-76
2021/07/06 02:37:54;;;;;;;2.10;1.50;;;16.30;99.90;;;;;;5094783;28;20567;-76
2021/07/06 02:40:20;;;;;;;1.33;1.23;;;16.30;99.90;;;;;;5094663;28;20479;-76
2021/07/06 02:42:47;;;;;;;1.37;1.30;;;16.20;99.90;;;;;;5094577;28;20454;-76
2021/07/06 02:45:16;;;;;;;1.40;1.30;;;16.20;99.90;;;;;;5094766;28;20459;-76
2021/07/06 02:47:43;;;;;;;4.63;1.50;;;16.10;99.90;;;;;;5094521;28;20459;-76
2021/07/06 02:50:13;;;;;;;1.73;1.40;;;16.10;99.90;;;;;;5094456;28;20444;-76
2021/07/06 02:52:40;;;;;;;1.90;1.80;;;16.10;99.90;;;;;;5094657;28;20444;-76
2021/07/06 02:55:09;;;;;;;1.70;1.60;;;16.00;99.90;;;;;;5094357;28;20474;-76
2021/07/06 02:57:36;;;;;;;3.03;1.73;;;16.00;99.90;;;;;;5094011;28;20471;-76
2021/07/06 03:00:10;;;;;;;3.73;1.60;;;16.00;99.90;;;;;;5093947;28;20549;-76
2021/07/06 03:02:38;;;;;;;1.50;1.40;;;15.90;99.90;;;;;;5094070;28;20483;-76
2021/07/06 03:05:06;;;;;;;1.43;1.33;;;15.90;99.90;;;;;;5094235;28;20444;-76
2021/07/06 03:07:34;;;;;;;1.73;1.17;;;15.90;99.90;;;;;;5094054;28;20475;-76
2021/07/06 03:10:02;;;;;;;1.60;1.50;;;15.90;99.90;;;;;;5093831;28;20446;-76
2021/07/06 03:12:28;;;;;;;1.83;1.60;;;15.80;99.90;;;;;;5094060;28;20449;-75
2021/07/06 03:14:55;;;;;;;3.40;1.30;;;15.90;99.90;;;;;;5094294;28;20451;-76
2021/07/06 03:17:22;;;;;;;1.90;1.80;;;15.90;99.90;;;;;;5093691;28;20428;-75
2021/07/06 03:19:49;;;;;;;1.77;1.67;;;15.90;99.90;;;;;;5093806;28;20494;-76
2021/07/06 03:22:15;;;;;;;4.40;3.20;;;15.80;99.90;;;;;;5093640;28;20448;-76
2021/07/06 03:24:44;;;;;;;2.10;1.90;;;15.80;99.90;;;;;;5093880;28;20447;-76
2021/07/06 03:27:10;;;;;;;2.63;2.13;;;15.80;99.90;;;;;;5093491;28;20428;-76
2021/07/06 03:29:37;;;;;;;2.20;1.83;;;15.80;99.90;;;;;;5093466;28;20895;-76
2021/07/06 03:32:05;;;;;;;1.47;1.37;;;15.70;99.90;;;;;;5093746;28;20451;-76
2021/07/06 03:34:32;;;;;;;1.57;1.47;;;15.70;99.90;;;;;;5093362;28;20447;-76
2021/07/06 03:36:58;;;;;;;2.23;1.50;;;15.70;99.90;;;;;;5093710;28;20459;-76
2021/07/06 03:39:25;;;;;;;1.77;1.67;;;15.70;99.90;;;;;;5093553;28;20488;-76
2021/07/06 03:41:53;;;;;;;1.50;1.40;;;15.70;99.90;;;;;;5093588;28;20444;-76
2021/07/06 03:44:20;;;;;;;2.73;2.53;;;15.70;99.90;;;;;;5093554;28;20444;-76
2021/07/06 03:46:46;;;;;;;1.47;1.37;;;15.70;99.90;;;;;;5093580;28;20454;-76
2021/07/06 03:49:13;;;;;;;2.10;1.47;;;15.70;99.90;;;;;;5092426;28;20455;-76
2021/07/06 03:51:40;;;;;;;1.50;1.40;;;15.70;99.90;;;;;;5093944;28;20452;-76
2021/07/06 03:54:07;;;;;;;3.00;1.63;;;15.80;99.90;;;;;;5093245;28;20435;-76
2021/07/06 03:56:33;;;;;;;1.07;1.07;;;15.80;99.90;;;;;;5094038;28;20453;-75
2021/07/06 03:59:02;;;;;;;1.60;1.50;;;15.80;99.90;;;;;;5093262;28;20463;-75
2021/07/06 04:01:28;;;;;;;1.70;1.60;;;15.90;99.90;;;;;;5093166;28;20479;-76
2021/07/06 04:03:55;;;;;;;1.53;1.43;;;15.90;99.90;;;;;;5093124;28;20954;-76
2021/07/06 04:06:22;;;;;;;1.37;1.30;;;16.00;99.90;;;;;;5093401;28;20451;-75
2021/07/06 04:08:49;;;;;;;2.40;2.20;;;16.10;99.90;;;;;;5093396;28;20464;-76
2021/07/06 04:11:15;;;;;;;2.07;1.97;;;16.20;99.90;;;;;;5093247;28;20440;-78
2021/07/06 04:13:42;;;;;;;1.30;1.30;;;16.30;99.90;;;;;;5093337;28;20459;-78
2021/07/06 04:16:10;;;;;;;1.90;1.80;;;16.40;99.90;;;;;;5093160;28;20448;-79
2021/07/06 04:18:37;;;;;;;1.73;1.63;;;16.40;99.90;;;;;;5093158;28;20463;-79
2021/07/06 04:21:06;;;;;;;2.20;1.93;;;16.50;99.90;;;;;;5093076;28;20487;-80
2021/07/06 04:23:33;;;;;;;2.30;2.00;;;16.50;99.90;;;;;;5093182;28;20452;-79
2021/07/06 04:26:00;;;;;;;1.60;1.50;;;16.50;99.90;;;;;;5092839;28;20939;-79
2021/07/06 04:28:27;;;;;;;3.43;3.13;;;16.50;99.90;;;;;;5093056;28;20466;-79
2021/07/06 04:30:53;;;;;;;1.80;1.70;;;16.60;99.90;;;;;;5093090;28;20440;-79
2021/07/06 04:33:22;;;;;;;1.73;1.50;;;16.60;99.90;;;;;;5093374;28;20447;-79
2021/07/06 04:35:48;;;;;;;1.43;1.33;;;16.70;99.90;;;;;;5093073;28;20440;-80
2021/07/06 04:38:15;;;;;;;1.20;1.20;;;16.70;99.90;;;;;;5093017;28;20832;-80
2021/07/06 04:40:42;;;;;;;2.60;1.43;;;16.70;99.90;;;;;;5092641;28;20476;-80
2021/07/06 04:43:10;;;;;;;1.43;1.27;;;16.70;99.90;;;;;;5092739;28;20947;-80
2021/07/06 04:45:37;;;;;;;1.00;1.00;;;16.90;99.90;;;;;;5093034;28;20505;-80
2021/07/06 04:48:05;;;;;;;2.13;1.60;;;16.90;99.90;;;;;;5092858;28;20467;-79
2021/07/06 04:50:35;;;;;;;2.27;1.90;;;17.00;99.90;;;;;;5092595;28;20969;-79
2021/07/06 04:53:03;;;;;;;1.93;1.53;;;17.10;99.90;;;;;;5092832;28;20917;-79
2021/07/06 04:55:30;;;;;;;1.60;1.50;;;17.20;99.90;;;;;;5092919;28;20472;-80
2021/07/06 04:57:57;;;;;;;1.47;1.37;;;17.30;99.90;;;;;;5092508;28;21009;-79
2021/07/06 05:00:24;;;;;;;1.20;1.20;;;17.40;99.90;;;;;;5092760;28;20525;-80
2021/07/06 05:02:51;;;;;;;1.63;1.53;;;17.40;99.90;;;;;;5096589;28;20448;-80
2021/07/06 05:05:17;;;;;;;1.53;1.43;;;17.50;99.90;;;;;;5096855;28;20435;-80
2021/07/06 05:07:46;;;;;;;1.40;1.30;;;17.50;99.90;;;;;;5096733;28;20459;-80
2021/07/06 05:10:13;;;;;;;1.43;1.07;;;17.60;99.90;;;;;;5096213;28;20809;-80
2021/07/06 05:12:40;;;;;;;3.53;1.67;;;17.60;99.90;;;;;;5096325;28;20440;-80
2021/07/06 05:15:09;;;;;;;2.13;1.77;;;17.60;99.90;;;;;;5096350;28;20439;-80
2021/07/06 05:17:35;;;;;;;1.70;1.50;;;17.60;99.90;;;;;;5096582;28;20809;-79
2021/07/06 05:20:05;;;;;;;1.47;1.37;;;17.50;99.90;;;;;;5096469;28;20479;-79
2021/07/06 05:22:32;;;;;;;4.77;2.30;;;17.40;99.90;;;;;;5096253;28;20446;-79
2021/07/06 05:25:00;;;;;;;2.63;2.43;;;17.40;99.90;;;;;;5096266;28;20439;-79
2021/07/06 05:27:26;;;;;;;1.97;1.80;;;17.40;99.90;;;;;;5096009;28;20475;-79
2021/07/06 05:29:53;;;;;;;3.00;2.03;;;17.30;99.90;;;;;;5096112;28;20447;-79
2021/07/06 05:32:21;;;;;;;2.70;1.67;;;17.30;99.90;;;;;;5096060;28;20444;-79
2021/07/06 05:34:48;;;;;;;1.93;1.70;;;17.30;99.90;;;;;;5096060;28;20444;-80
2021/07/06 05:37:15;;;;;;;3.63;1.73;;;17.30;99.90;;;;;;5095754;28;20452;-80
2021/07/06 05:39:43;;;;;;;2.00;1.83;;;17.40;99.90;;;;;;5095488;28;21025;-79
2021/07/06 05:42:12;;;;;;;3.13;1.97;;;17.40;99.90;;;;;;5095555;28;20530;-80
2021/07/06 05:44:39;;;;;;;1.70;1.60;;;17.50;99.90;;;;;;5096596;28;20914;-80
2021/07/06 05:47:07;;;;;;;1.17;1.17;;;17.60;99.90;;;;;;5095357;28;20930;-80
2021/07/06 05:49:34;;;;;;;1.30;1.27;;;17.70;99.90;;;;;;5095314;28;20452;-80
2021/07/06 05:52:01;;;;;;;1.40;1.30;;;17.80;99.90;;;;;;5095573;28;20797;-80
2021/07/06 05:54:28;;;;;;;1.37;1.27;;;17.90;99.90;;;;;;5095594;28;20448;-80
2021/07/06 05:56:55;;;;;;;3.53;1.40;;;18.00;99.90;;;;;;5095473;28;20440;-80
2021/07/06 05:59:23;;;;;;;5.53;2.00;;;18.10;99.90;;;;;;5095432;28;20490;-80
2021/07/06 06:01:50;;;;;;;2.13;1.40;;;18.30;99.90;;;;;;5095160;28;20494;-80
2021/07/06 06:04:17;;;;;;;2.10;1.63;;;18.40;99.90;;;;;;5095407;28;20440;-80
2021/07/06 06:06:44;;;;;;;5.13;1.53;;;18.50;99.90;;;;;;5095322;28;20479;-79
2021/07/06 06:09:11;;;;;;;2.80;1.20;;;18.60;99.90;;;;;;5095220;28;20472;-80
2021/07/06 06:11:37;;;;;;;2.30;1.70;;;18.70;99.90;;;;;;5095122;28;20451;-79
2021/07/06 06:14:04;;;;;;;1.73;1.60;;;18.80;99.90;;;;;;5094005;28;20938;-79
2021/07/06 06:16:32;;;;;;;4.00;1.97;;;18.90;99.90;;;;;;5095120;28;20443;-80
2021/07/06 06:18:59;;;;;;;1.53;1.43;;;19.00;99.90;;;;;;5095051;28;20460;-79
2021/07/06 06:21:27;;;;;;;1.50;1.40;;;19.20;99.90;;;;;;5094972;28;20483;-79
2021/07/06 06:23:54;;;;;;;1.60;1.50;;;19.40;99.90;;;;;;5095017;28;20440;-79
2021/07/06 06:26:21;;;;;;;1.53;1.43;;;19.60;99.90;;;;;;5094976;28;20439;-79
2021/07/06 06:28:48;;;;;;;1.27;1.17;;;19.70;99.90;;;;;;5094591;28;21009;-80
2021/07/06 06:31:16;;;;;;;1.37;1.00;;;19.80;99.90;;;;;;5094915;28;20442;-80
2021/07/06 06:33:44;;;;;;;1.43;1.33;;;20.10;99.90;;;;;;5094518;28;20873;-79
2021/07/06 06:36:11;;;;;;;1.47;1.37;;;20.20;99.90;;;;;;5094602;28;20761;-80
2021/07/06 06:38:38;;;;;;;1.40;1.27;;;20.40;99.90;;;;;;5094645;28;20812;-79
2021/07/06 06:41:04;;;;;;;1.57;1.17;;;20.50;99.90;;;;;;5094653;28;20502;-79
2021/07/06 06:43:31;;;;;;;1.90;1.47;;;20.70;99.90;;;;;;5094669;28;20470;-79
2021/07/06 06:45:58;;;;;;;1.30;1.30;;;20.80;99.90;;;;;;5094399;28;20432;-80
2021/07/06 06:48:25;;;;;;;1.90;1.50;;;20.90;99.90;;;;;;5094360;28;20491;-80
2021/07/06 06:50:53;;;;;;;2.70;1.17;;;21.00;99.90;;;;;;5094700;28;20454;-80
2021/07/06 06:53:20;;;;;;;3.63;1.40;;;21.10;99.90;;;;;;5094349;28;20431;-80
2021/07/06 06:55:46;;;;;;;1.73;1.30;;;21.20;99.90;;;;;;5094776;28;20447;-80
2021/07/06 06:58:13;;;;;;;3.90;1.60;;;21.30;99.90;;;;;;5094377;28;20471;-80
2021/07/06 07:00:40;;;;;;;2.20;1.40;;;21.40;99.90;;;;;;5094105;28;20483;-80
2021/07/06 07:03:07;;;;;;;2.63;1.27;;;21.70;99.90;;;;;;5094313;28;21007;-81
2021/07/06 07:05:34;;;;;;;2.40;1.10;;;22.00;99.90;;;;;;5094357;28;20451;-81
2021/07/06 07:08:02;;;;;;;1.60;0.93;;;22.10;99.90;;;;;;5094619;28;20471;-80
2021/07/06 07:10:29;;;;;;;2.60;1.10;;;22.00;99.90;;;;;;5093947;28;20945;-80
2021/07/06 07:12:56;;;;;;;0.90;0.90;;;21.90;99.90;;;;;;5094185;28;20444;-80
2021/07/06 07:15:23;;;;;;;1.80;1.20;;;21.80;99.90;;;;;;5094138;28;20443;-81
2021/07/06 07:17:50;;;;;;;1.10;0.87;;;21.80;99.90;;;;;;5093914;28;20459;-81
2021/07/06 07:20:17;;;;;;;1.80;1.10;;;21.80;99.90;;;;;;5094027;28;20502;-81
2021/07/06 07:22:46;;;;;;;1.53;1.00;;;21.90;99.90;;;;;;5093854;28;20415;-80
2021/07/06 07:25:14;;;;;;;0.90;0.90;;;21.90;99.90;;;;;;5093785;28;20431;-81
2021/07/06 07:27:42;;;;;;;0.90;0.90;;;22.10;99.90;;;;;;5093918;28;20479;-81
2021/07/06 07:30:12;;;;;;;0.90;0.90;;;22.20;99.90;;;;;;5093811;28;20452;-80
2021/07/06 07:32:39;;;;;;;2.10;1.07;;;22.20;99.90;;;;;;5094306;28;20447;-81
2021/07/06 07:35:07;;;;;;;0.70;0.70;;;22.30;99.90;;;;;;5093937;28;20440;-81
2021/07/06 07:37:34;;;;;;;1.00;1.00;;;22.40;99.90;;;;;;5093845;28;20463;-81
2021/07/06 07:40:00;;;;;;;1.43;0.90;;;22.50;99.90;;;;;;5093761;28;20411;-81
2021/07/06 07:42:29;;;;;;;1.20;1.00;;;22.50;99.90;;;;;;5093784;28;20437;-80
2021/07/06 07:44:55;;;;;;;0.80;0.80;;;22.70;99.90;;;;;;5093716;28;20423;-81
2021/07/06 07:47:22;;;;;;;1.70;0.90;;;22.70;99.90;;;;;;5093318;28;20408;-81
2021/07/06 07:49:49;;;;;;;1.07;0.90;;;22.80;99.90;;;;;;5093760;28;20194;-81
2021/07/06 07:52:15;;;;;;;1.30;1.00;;;23.00;99.90;;;;;;5093896;28;20192;-81
2021/07/06 07:54:42;;;;;;;1.93;1.20;;;23.10;99.90;;;;;;5093383;28;20200;-81
2021/07/06 07:57:10;;;;;;;0.83;0.83;;;23.00;99.90;;;;;;5093078;28;20205;-81
2021/07/06 07:59:39;;;;;;;0.90;0.80;;;22.80;99.90;;;;;;5093093;28;20580;-81
2021/07/06 08:02:06;;;;;;;0.70;0.70;;;22.70;99.90;;;;;;5092975;28;20240;-81
2021/07/06 08:04:34;;;;;;;3.10;1.10;;;22.50;99.90;;;;;;5093646;28;20448;-81
2021/07/06 08:07:00;;;;;;;1.27;0.90;;;22.30;99.90;;;;;;5093142;28;21047;-81
2021/07/06 08:09:27;;;;;;;1.00;0.90;;;22.60;99.90;;;;;;5093334;28;20815;-81
2021/07/06 08:11:54;;;;;;;0.90;0.90;;;23.00;99.90;;;;;;5093363;28;20193;-81
2021/07/06 08:14:20;;;;;;;1.25;1.05;;;23.60;99.90;;;;;;5093319;28;20447;-81
2021/07/06 08:16:51;;;;;;;1.10;1.10;;;24.10;99.90;;;;;;5093546;28;20201;-81
2021/07/06 08:19:18;;;;;;;1.35;0.98;;;24.50;99.90;;;;;;5093297;28;20229;-82
2021/07/06 08:21:45;;;;;;;0.90;0.90;;;25.00;99.90;;;;;;5092857;28;20225;-82
2021/07/06 08:24:11;;;;;;;0.80;0.80;;;25.40;99.90;;;;;;5093519;28;20213;-82
2021/07/06 08:26:38;;;;;;;2.35;1.10;;;25.80;99.90;;;;;;5092930;28;20691;-82
2021/07/06 08:29:05;;;;;;;0.90;0.90;;;26.20;99.90;;;;;;5093013;28;20726;-87
2021/07/06 08:31:32;;;;;;;0.90;0.90;;;26.50;99.90;;;;;;5093410;28;20661;-86
2021/07/06 08:34:01;;;;;;;8.32;1.35;;;26.50;99.90;;;;;;5093290;28;20200;-88
2021/07/06 08:36:27;;;;;;;1.75;1.13;;;26.40;99.90;;;;;;5095127;28;20209;-88
2021/07/06 08:38:54;;;;;;;0.95;0.95;;;26.50;99.90;;;;;;5097134;28;20228;-87
2021/07/06 08:41:22;;;;;;;3.08;1.10;;;26.50;99.90;;;;;;5097199;28;20222;-87
2021/07/06 08:43:49;;;;;;;1.30;1.00;;;26.40;99.90;;;;;;5097808;28;20251;-88
2021/07/06 08:46:18;;;;;;;1.15;1.15;;;26.20;99.90;;;;;;5096782;28;20691;-86
2021/07/06 08:48:46;;;;;;;1.00;1.00;;;26.10;99.90;;;;;;5096925;28;20637;-87
2021/07/06 08:51:18;;;;;;;1.75;0.90;;;25.90;99.90;;;;;;5097515;28;20198;-86
2021/07/06 08:53:45;;;;;;;4.03;1.30;;;25.70;99.90;;;;;;5097140;28;20196;-87
2021/07/06 08:56:12;;;;;;;1.50;0.90;;;25.60;99.90;;;;;;5096583;28;20193;-87
2021/07/06 08:58:39;;;;;;;1.45;1.15;;;25.50;99.90;;;;;;5096491;28;20708;-84
2021/07/06 09:01:06;;;;;;;1.52;1.40;;;25.20;99.90;;;;;;5096544;28;20225;-82
2021/07/06 09:03:54;;;;;;;0.90;0.90;;;25.10;99.90;;;;;;5097285;28;20665;-81
2021/07/06 09:06:22;;;;;;;2.88;1.02;;;24.80;99.90;;;;;;5096638;28;20237;-81
2021/07/06 09:08:52;;;;;;;1.02;0.95;;;24.60;99.90;;;;;;5096561;28;20279;-81
2021/07/06 09:11:20;;;;;;;0.82;0.80;;;24.60;99.90;;;;;;5096250;28;20231;-81
2021/07/06 09:13:47;;;;;;;2.47;1.00;;;24.60;99.90;;;;;;5096534;28;20182;-81
2021/07/06 09:16:22;;;;;;;1.33;1.15;;;24.50;99.90;;;;;;5096534;28;20186;-81
2021/07/06 09:18:49;;;;;;;1.80;1.70;;;24.40;99.90;;;;;;5096316;28;20688;-82
2021/07/06 09:21:16;;;;;;;1.38;1.27;;;24.20;99.90;;;;;;5096327;28;20213;-81
2021/07/06 09:23:46;;;;;;;0.98;0.90;;;24.00;99.90;;;;;;5096289;28;20190;-81
2021/07/06 09:26:18;;;;;;;1.48;1.40;;;23.80;99.90;;;;;;5096261;28;20225;-81
2021/07/06 09:28:47;;;;;;;5.07;1.65;;;23.60;99.90;;;;;;5096158;28;20221;-81
2021/07/06 09:31:31;;;;;;;0.90;0.90;;;23.50;99.90;;;;;;5096159;28;20182;-81
2021/07/06 09:34:02;;;;;;;2.30;0.80;;;23.30;99.90;;;;;;5096519;28;20190;-81
2021/07/06 09:36:35;;;;;;;3.03;1.40;;;23.20;99.90;;;;;;5096174;28;20221;-81
2021/07/06 09:39:07;;;;;;;1.80;1.70;;;23.10;99.90;;;;;;5095998;28;20228;-81
2021/07/06 09:41:34;;;;;;;1.50;1.40;;;22.90;99.90;;;;;;5095926;28;20232;-81
2021/07/06 09:44:16;;;;;;;1.00;1.00;;;22.80;99.90;;;;;;5095980;28;20181;-81
2021/07/06 09:46:47;;;;;;;1.47;0.90;;;22.70;99.90;;;;;;5093775;28;20452;-81
2021/07/06 09:49:16;;;;;;;0.87;0.87;;;22.70;99.90;;;;;;5095892;28;20225;-81
2021/07/06 09:51:43;;;;;;;1.10;0.83;;;22.90;99.90;;;;;;5095936;28;20516;-81
2021/07/06 09:54:23;;;;;;;0.70;0.50;;;23.20;99.90;;;;;;5095870;28;20432;-81
2021/07/06 09:56:51;;;;;;;0.70;0.63;;;23.30;99.90;;;;;;5095752;28;20178;-81
2021/07/06 09:59:18;;;;;;;0.53;0.53;;;23.50;99.90;;;;;;5095729;28;20221;-81
2021/07/06 10:01:53;;;;;;;0.60;0.60;;;23.50;99.90;;;;;;5095209;28;20708;-81
2021/07/06 10:04:23;;;;;;;1.07;0.60;;;23.50;99.90;;;;;;5095350;28;20186;-81
2021/07/06 10:06:50;;;;;;;0.80;0.60;;;23.40;99.90;;;;;;5095528;28;20189;-81
2021/07/06 10:09:19;;;;;;;0.50;0.50;;;23.20;99.90;;;;;;5095478;28;20227;-81
2021/07/06 10:11:46;;;;;;;0.60;0.60;;;23.00;99.90;;;;;;5095473;28;20555;-81
2021/07/06 10:14:13;;;;;;;0.70;0.60;;;22.90;99.90;;;;;;5096206;28;20185;-81
2021/07/06 10:16:40;;;;;;;0.60;0.40;;;22.70;99.90;;;;;;5095349;28;20182;-81
2021/07/06 10:19:08;;;;;;;0.50;0.50;;;22.70;99.90;;;;;;5095167;28;20233;-81
2021/07/06 10:21:36;;;;;;;0.50;0.50;;;22.60;99.90;;;;;;5094863;28;20996;-81
2021/07/06 10:24:05;;;;;;;0.50;0.50;;;22.60;99.90;;;;;;5094976;28;20428;-82
2021/07/06 10:26:35;;;;;;;0.70;0.70;;;22.50;99.90;;;;;;5095170;28;20480;-82
2021/07/06 10:29:02;;;;;;;0.80;0.50;;;22.50;99.90;;;;;;5095057;28;20475;-82
2021/07/06 10:31:30;;;;;;;0.50;0.50;;;22.50;99.90;;;;;;5095166;28;20424;-82
2021/07/06 10:33:58;;;;;;;1.80;0.50;;;22.60;99.90;;;;;;5095000;28;20190;-82
2021/07/06 10:36:37;;;;;;;0.70;0.47;;;22.60;99.90;;;;;;5094988;28;20186;-82
2021/07/06 10:39:06;;;;;;;0.83;0.30;;;22.50;99.90;;;;;;5095259;28;20481;-81
2021/07/06 10:41:58;;;;;;;0.53;0.43;;;22.30;99.90;;;;;;5094450;28;20978;-81
2021/07/06 10:44:34;;;;;;;0.40;0.40;;;22.20;99.90;;;;;;5094836;28;20465;-81
2021/07/06 10:47:01;;;;;;;0.40;0.40;;;22.00;99.90;;;;;;5094805;28;20435;-81
2021/07/06 10:49:32;;;;;;;0.60;0.60;;;21.90;99.90;;;;;;5094611;28;20451;-81
2021/07/06 10:52:01;;;;;;;0.50;0.50;;;21.90;99.90;;;;;;5094749;28;20455;-81
2021/07/06 10:54:30;;;;;;;0.50;0.50;;;21.80;99.90;;;;;;5094921;28;20813;-81
2021/07/06 10:57:13;;;;;;;0.93;0.50;;;21.80;99.90;;;;;;5094603;28;20793;-81
2021/07/06 10:59:41;;;;;;;0.50;0.40;;;21.70;99.90;;;;;;5093727;28;20899;-81
2021/07/06 11:02:08;;;;;;;0.43;0.40;;;21.70;99.90;;;;;;5093931;28;20487;-80
2021/07/06 11:05:03;;;;;;;0.50;0.40;;;21.70;99.90;;;;;;5094454;28;20522;-80
2021/07/06 11:07:51;;;;;;;0.43;0.40;;;21.70;99.90;;;;;;5093986;28;20815;-80
2021/07/06 11:10:20;;;;;;;0.50;0.50;;;21.80;99.90;;;;;;5094402;28;20467;-80
2021/07/06 11:12:49;;;;;;;1.13;0.57;;;21.80;99.90;;;;;;5094353;28;20786;-81
2021/07/06 11:15:24;;;;;;;0.40;0.40;;;21.90;99.90;;;;;;5094174;28;20432;-81
2021/07/06 11:18:00;;;;;;;0.90;0.60;;;22.00;99.90;;;;;;5094169;28;20535;-80
2021/07/06 11:20:35;;;;;;;0.77;0.60;;;22.10;99.90;;;;;;5094173;28;20488;-81
2021/07/06 11:23:03;;;;;;;0.40;0.40;;;22.10;99.90;;;;;;5093951;28;20469;-81
2021/07/06 11:25:38;;;;;;;0.40;0.40;;;22.20;99.90;;;;;;5093630;28;20903;-81
2021/07/06 11:28:10;;;;;;;0.40;0.40;;;22.10;99.90;;;;;;5093819;28;20471;-81
2021/07/06 11:30:41;;;;;;;0.47;0.40;;;22.10;99.90;;;;;;5093862;28;20465;-81
2021/07/06 11:33:09;;;;;;;0.60;0.40;;;22.00;99.90;;;;;;5093579;28;20420;-81
2021/07/06 11:35:38;;;;;;;0.47;0.47;;;22.00;99.90;;;;;;5093926;28;20796;-81
2021/07/06 11:38:08;;;;;;;0.70;0.70;;;21.90;99.90;;;;;;5093767;28;20463;-81
2021/07/06 11:40:36;;;;;;;1.73;1.20;;;21.80;99.90;;;;;;5093788;28;20444;-81
2021/07/06 11:43:03;;;;;;;0.80;0.80;;;21.80;99.90;;;;;;5093717;28;20463;-81
2021/07/06 11:45:31;;;;;;;0.70;0.50;;;21.70;99.90;;;;;;5094422;28;20440;-81
2021/07/06 11:48:20;;;;;;;0.40;0.40;;;21.60;99.90;;;;;;5093676;28;20470;-81
2021/07/06 11:50:48;;;;;;;0.43;0.43;;;21.50;99.90;;;;;;5089477;28;20443;-81
2021/07/06 11:53:16;;;;;;;0.97;0.77;;;21.40;99.90;;;;;;5093661;28;20424;-81
2021/07/06 11:55:44;;;;;;;1.33;0.60;;;21.50;99.90;;;;;;5093656;28;20434;-81
2021/07/06 11:58:12;;;;;;;0.70;0.50;;;21.50;99.90;;;;;;5093499;28;20824;-81
2021/07/06 12:00:41;;;;;;;0.87;0.50;;;21.50;99.90;;;;;;5093162;28;20430;-81
2021/07/06 12:03:25;;;;;;;0.40;0.40;;;21.50;99.90;;;;;;5093532;28;20463;-81
2021/07/06 12:05:54;;;;;;;1.00;0.40;;;21.60;99.90;;;;;;5093240;28;20891;-80
2021/07/06 12:08:23;;;;;;;0.40;0.40;;;21.60;99.90;;;;;;5093713;28;20463;-81
2021/07/06 12:10:58;;;;;;;2.53;0.43;;;21.60;99.90;;;;;;5094320;28;20440;-81
2021/07/06 12:13:26;;;;;;;1.33;0.50;;;21.70;99.90;;;;;;5097382;28;20910;-81
2021/07/06 12:15:56;;;;;;;0.50;0.50;;;21.80;99.90;;;;;;5097450;28;20887;-81
2021/07/06 12:18:24;;;;;;;0.63;0.50;;;21.90;99.90;;;;;;5097588;28;20475;-81
2021/07/06 12:20:58;;;;;;;0.67;0.60;;;21.90;99.90;;;;;;5097301;28;20955;-81
2021/07/06 12:23:26;;;;;;;0.50;0.50;;;22.00;99.90;;;;;;5097398;28;20471;-81
2021/07/06 12:25:59;;;;;;;0.50;0.50;;;22.00;99.90;;;;;;5097483;28;20436;-81
2021/07/06 12:28:26;;;;;;;0.87;0.50;;;22.00;99.90;;;;;;5097324;28;20471;-81
2021/07/06 12:31:21;;;;;;;2.23;0.50;;;22.00;99.90;;;;;;5097390;28;20431;-81
2021/07/06 12:33:59;;;;;;;0.40;0.40;;;22.00;99.90;;;;;;5097340;28;20428;-81
2021/07/06 12:36:30;;;;;;;1.10;0.60;;;21.90;99.90;;;;;;5096926;28;20925;-81
2021/07/06 12:39:12;;;;;;;1.37;0.53;;;21.80;99.90;;;;;;5097150;28;20482;-80
2021/07/06 12:41:43;;;;;;;0.73;0.50;;;21.90;99.90;;;;;;5097325;28;20442;-79
2021/07/06 12:44:11;;;;;;;1.17;0.63;;;21.90;99.90;;;;;;5097403;28;20899;-79
2021/07/06 12:46:39;;;;;;;0.50;0.50;;;21.90;99.90;;;;;;5096851;28;20776;-79
2021/07/06 12:49:06;;;;;;;0.70;0.60;;;21.90;99.90;;;;;;5096921;28;20821;-79
2021/07/06 12:51:33;;;;;;;0.70;0.70;;;21.90;99.90;;;;;;5096688;28;20898;-80
2021/07/06 12:54:02;;;;;;;3.13;2.10;;;21.90;99.90;;;;;;5096628;28;20933;-80